^^
Saratoga-Weather Station Historical Data
Daily Summary for March 4, 2021 Units:  English    Metric   Both
Daily Weekly Monthly Yearly Custom
  High: Low: Average:
Temperature: 82.8 °F 61.2 °F 68.5 °F
Dew Point: 67.8 °F 58.5 °F 63 °F
Humidity: 98% 54% 85%
Wind Speed: 15mph 0mph 1.4mph
Wind Gust: 20mph - -
Wind- - South
Pressure: 30.1 in 30 in -
Precipitation: 0.06 in    
Historical Graphs
 
 
Tabular Data for March 4, 2021
Time Temperature Dew Point Pressure Wind Wind Speed Wind Gust Humidity Rainfall Rate (Hourly) solar
00:04 63.9 °F 62.8 °F 30.1 in Calm     96% 0 in 0 W/m2
00:09 63.7 °F 62.6 °F 30.1 in Calm     96% 0 in 0 W/m2
00:14 63.5 °F 62.1 °F 30.1 in Calm     95% 0 in 0 W/m2
00:19 63.3 °F 62.2 °F 30.1 in Calm     96% 0 in 0 W/m2
00:24 63.1 °F 62.1 °F 30.1 in Calm     96% 0 in 0 W/m2
00:29 63.1 °F 62.1 °F 30.1 in Calm     96% 0 in 0 W/m2
00:34 63.1 °F 62.1 °F 30.1 in Calm   2 mph 96% 0 in 0 W/m2
00:39 63.3 °F 62.2 °F 30.1 in Calm     96% 0 in 0 W/m2
00:44 63.3 °F 62.2 °F 30.1 in Calm   2 mph 96% 0 in 0 W/m2
00:49 63.3 °F 62.2 °F 30.1 in Calm     96% 0 in 0 W/m2
00:54 63.1 °F 62.1 °F 30.1 in Calm     96% 0 in 0 W/m2
00:59 63.1 °F 62.1 °F 30.1 in Calm     96% 0 in 0 W/m2
01:05 63 °F 61.9 °F 30.1 in Calm     96% 0 in 0 W/m2
01:10 63 °F 61.9 °F 30.1 in Calm     96% 0 in 0 W/m2
01:15 63 °F 61.9 °F 30.1 in Calm     96% 0 in 0 W/m2
01:20 63 °F 61.9 °F 30.1 in Calm     96% 0 in 0 W/m2
01:25 62.8 °F 61.7 °F 30.1 in Calm     96% 0 in 0 W/m2
01:30 62.6 °F 61.5 °F 30.1 in Calm     96% 0 in 0 W/m2
01:35 62.4 °F 61.3 °F 30.1 in Calm     96% 0 in 0 W/m2
01:40 62.2 °F 61.2 °F 30.1 in Calm     96% 0 in 0 W/m2
01:45 62.2 °F 61.2 °F 30.1 in Calm     96% 0 in 0 W/m2
01:50 62.1 °F 61 °F 30.1 in Calm     96% 0 in 0 W/m2
01:55 62.2 °F 61.2 °F 30.1 in Calm     96% 0 in 0 W/m2
02:00 62.1 °F 61 °F 30.1 in Calm     96% 0 in 0 W/m2
02:05 62.1 °F 61 °F 30.1 in Calm     96% 0 in 0 W/m2
02:10 62.1 °F 61 °F 30.1 in Calm     96% 0 in 0 W/m2
02:15 62.1 °F 61 °F 30.1 in Calm     96% 0 in 0 W/m2
02:20 62.1 °F 61 °F 30.1 in Calm     96% 0 in 0 W/m2
02:25 61.9 °F 60.8 °F 30.1 in Calm     96% 0 in 0 W/m2
02:30 61.9 °F 61 °F 30.1 in Calm     97% 0 in 0 W/m2
02:35 61.9 °F 61 °F 30.1 in Calm     97% 0 in 0 W/m2
02:41 61.9 °F 61 °F 30.1 in Calm     97% 0 in 0 W/m2
02:46 61.9 °F 61 °F 30.1 in Calm     97% 0 in 0 W/m2
02:51 61.9 °F 61 °F 30.1 in Calm     97% 0 in 0 W/m2
02:56 61.9 °F 61 °F 30.1 in WSW 2 mph 2 mph 97% 0 in 0 W/m2
03:01 61.7 °F 60.6 °F 30.1 in Calm     96% 0 in 0 W/m2
03:06 61.5 °F 60.4 °F 30.1 in Calm     96% 0 in 0 W/m2
03:11 61.5 °F 60.4 °F 30.1 in Calm     96% 0 in 0 W/m2
03:16 61.3 °F 60.3 °F 30.1 in Calm     96% 0 in 0 W/m2
03:21 61.2 °F 60.3 °F 30.1 in Calm     97% 0 in 0 W/m2
03:26 61.3 °F 60.4 °F 30.1 in Calm     97% 0 in 0 W/m2
03:31 61.2 °F 60.3 °F 30.1 in Calm     97% 0 in 0 W/m2
03:36 61.2 °F 60.3 °F 30.1 in Calm     97% 0 in 0 W/m2
03:41 61.2 °F 60.3 °F 30.1 in Calm     97% 0 in 0 W/m2
03:46 61.3 °F 60.4 °F 30.1 in Calm     97% 0 in 0 W/m2
03:51 61.3 °F 60.4 °F 30.1 in Calm     97% 0 in 0 W/m2
03:56 61.3 °F 60.4 °F 30.1 in Calm     97% 0 in 0 W/m2
04:01 61.5 °F 60.6 °F 30.1 in Calm     97% 0 in 0 W/m2
04:06 61.5 °F 60.6 °F 30.1 in Calm     97% 0 in 0 W/m2
04:11 61.5 °F 60.6 °F 30.1 in Calm     97% 0 in 0 W/m2
04:16 61.9 °F 61 °F 30.1 in Calm     97% 0 in 0 W/m2
04:21 62.1 °F 61.2 °F 30.1 in WSW 0.9 mph 2 mph 97% 0 in 0 W/m2
04:26 62.2 °F 61.3 °F 30.1 in Calm   2 mph 97% 0 in 0 W/m2
04:31 62.1 °F 61.2 °F 30.1 in WSW 0.9 mph 2 mph 97% 0 in 0 W/m2
04:36 61.9 °F 61 °F 30.1 in Calm     97% 0 in 0 W/m2
04:41 61.7 °F 60.8 °F 30.1 in Calm   2 mph 97% 0 in 0 W/m2
04:46 61.7 °F 60.8 °F 30.1 in Calm     97% 0 in 0 W/m2
04:51 61.5 °F 60.6 °F 30.1 in Calm     97% 0 in 0 W/m2
04:56 61.5 °F 60.6 °F 30.1 in Calm     97% 0 in 0 W/m2
05:01 61.5 °F 60.6 °F 30.1 in Calm     97% 0 in 0 W/m2
05:06 61.5 °F 60.6 °F 30.1 in Calm     97% 0 in 0 W/m2
05:11 61.5 °F 60.6 °F 30.1 in Calm     97% 0 in 0 W/m2
05:16 61.5 °F 60.6 °F 30.1 in Calm     97% 0 in 0 W/m2
05:21 61.7 °F 60.8 °F 30.1 in Calm     97% 0 in 0 W/m2
05:26 61.9 °F 61 °F 30.1 in Calm     97% 0 in 0 W/m2
05:31 62.1 °F 61.2 °F 30.1 in Calm     97% 0 in 0 W/m2
05:36 62.1 °F 61.2 °F 30.1 in Calm     97% 0 in 5 W/m2
05:41 62.1 °F 61.2 °F 30.1 in Calm     97% 0 in 7 W/m2
05:46 62.1 °F 61.2 °F 30.1 in Calm     97% 0 in 14 W/m2
05:51 61.9 °F 61 °F 30.1 in Calm     97% 0 in 14 W/m2
05:56 61.9 °F 61 °F 30.1 in Calm     97% 0 in 11 W/m2
06:01 62.1 °F 61.2 °F 30.1 in Calm     97% 0 in 12 W/m2
06:06 62.1 °F 61.2 °F 30.1 in Calm     97% 0 in 14 W/m2
06:11 62.1 °F 61.2 °F 30.1 in Calm     97% 0 in 18 W/m2
06:16 62.1 °F 61.2 °F 30.1 in Calm     97% 0 in 21 W/m2
06:21 62.1 °F 61.2 °F 30.1 in Calm     97% 0 in 21 W/m2
06:26 62.1 °F 61.2 °F 30.1 in Calm     97% 0 in 26 W/m2
06:31 62.1 °F 61.2 °F 30.1 in Calm     97% 0 in 30 W/m2
06:36 62.1 °F 61.2 °F 30.1 in Calm     97% 0 in 32 W/m2
06:42 62.1 °F 61.2 °F 30.1 in Calm     97% 0 in 35 W/m2
06:47 62.1 °F 61.2 °F 30.1 in Calm     97% 0 in 35 W/m2
06:52 62.1 °F 61.2 °F 30.1 in Calm     97% 0 in 42 W/m2
06:57 62.2 °F 61.3 °F 30.1 in Calm     97% 0 in 54 W/m2
07:02 62.2 °F 61.3 °F 30.1 in Calm     97% 0 in 58 W/m2
07:07 62.2 °F 61.3 °F 30.1 in Calm     97% 0 in 70 W/m2
07:12 62.2 °F 61.3 °F 30.1 in Calm     97% 0 in 86 W/m2
07:17 62.4 °F 61.5 °F 30.1 in Calm     97% 0 in 86 W/m2
07:22 62.4 °F 61.5 °F 30.1 in Calm     97% 0 in 81 W/m2
07:27 62.6 °F 61.7 °F 30.1 in Calm     97% 0 in 97 W/m2
07:32 62.8 °F 62.2 °F 30.1 in Calm     98% 0 in 98 W/m2
07:37 62.8 °F 62.2 °F 30.1 in NNW 0.9 mph 2 mph 98% 0 in 111 W/m2
07:42 62.8 °F 62.2 °F 30.1 in Calm     98% 0 in 114 W/m2
07:47 62.8 °F 62.2 °F 30.1 in NE 2 mph 2 mph 98% 0 in 160 W/m2
07:52 62.8 °F 62.2 °F 30.1 in NE 0.9 mph 2 mph 98% 0 in 120 W/m2
07:57 62.8 °F 61.9 °F 30.1 in Calm     97% 0 in 179 W/m2
08:02 63 °F 62.4 °F 30.1 in ENE 0.9 mph 2 mph 98% 0 in 162 W/m2
08:07 63 °F 62.1 °F 30.1 in ENE 0.9 mph 1 mph 97% 0 in 125 W/m2
08:12 63.1 °F 62.2 °F 30.1 in Calm   2 mph 97% 0 in 188 W/m2
08:17 63.3 °F 62.8 °F 30.1 in Calm   1 mph 98% 0 in 114 W/m2
08:22 63.5 °F 63 °F 30.1 in NE 2 mph 3 mph 98% 0 in 118 W/m2
08:27 63.7 °F 63.1 °F 30.1 in East 0.9 mph 2 mph 98% 0 in 199 W/m2
08:32 63.7 °F 63.1 °F 30.1 in North 0.9 mph 4 mph 98% 0 in 162 W/m2
08:37 63.9 °F 63.3 °F 30.1 in East 2 mph 4 mph 98% 0 in 169 W/m2
08:42 64 °F 63.5 °F 30.1 in East 0.9 mph 2 mph 98% 0 in 178 W/m2
08:47 64.2 °F 63.7 °F 30.1 in East 2 mph 4 mph 98% 0 in 148 W/m2
08:52 64.8 °F 63.9 °F 30.1 in Calm   3 mph 97% 0 in 98 W/m2
08:57 65.1 °F 64.2 °F 30.1 in Calm   2 mph 97% 0 in 114 W/m2
09:02 65.5 °F 64.6 °F 30.1 in NE 0.9 mph 2 mph 97% 0 in 160 W/m2
09:07 65.8 °F 64.9 °F 30.1 in East 0.9 mph 2 mph 97% 0 in 311 W/m2
09:12 66.6 °F 65.3 °F 30.1 in ESE 0.9 mph 3 mph 96% 0 in 418 W/m2
09:17 66.9 °F 65.5 °F 30.1 in Calm   1 mph 95% 0 in 462 W/m2
09:22 67.6 °F 65.8 °F 30.1 in ESE 0.9 mph 4 mph 94% 0 in 468 W/m2
09:27 68.4 °F 66 °F 30.1 in ESE 0.9 mph 3 mph 92% 0 in 443 W/m2
09:32 68.9 °F 66.2 °F 30.1 in East 2 mph 4 mph 91% 0 in 424 W/m2
09:37 69.3 °F 65.8 °F 30.1 in NE 2.9 mph 3 mph 89% 0 in 485 W/m2
09:42 69.6 °F 65.8 °F 30.1 in WSW 2.9 mph 3 mph 88% 0 in 536 W/m2
09:47 70.2 °F 66 °F 30.1 in West 0.9 mph 4 mph 87% 0 in 548 W/m2
09:52 70.5 °F 65.8 °F 30.1 in East 2.9 mph 6 mph 85% 0 in 540 W/m2
09:57 71.1 °F 66.4 °F 30.1 in North 0.9 mph 3 mph 85% 0 in 573 W/m2
10:02 71.2 °F 65.5 °F 30.1 in NE 0.9 mph 2 mph 82% 0 in 90 W/m2
10:07 71.6 °F 65.8 °F 30.1 in ESE 0.9 mph 2 mph 82% 0 in 97 W/m2
10:12 72 °F 65.5 °F 30.1 in Calm   3 mph 80% 0 in 580 W/m2
10:17 72.3 °F 66.6 °F 30.1 in NE 2 mph 4 mph 82% 0 in 617 W/m2
10:22 72.7 °F 65.8 °F 30.1 in Calm   3 mph 79% 0 in 622 W/m2
10:27 73 °F 66.2 °F 30.1 in ESE 0.9 mph 4 mph 79% 0 in 633 W/m2
10:32 73.4 °F 66.6 °F 30.1 in NE 8 mph 8 mph 79% 0 in 649 W/m2
10:37 73.6 °F 65.8 °F 30.1 in ENE 0.9 mph 4 mph 77% 0 in 661 W/m2
10:42 73.6 °F 66.7 °F 30.1 in East 7 mph 7 mph 79% 0 in 679 W/m2
10:47 73.9 °F 67.1 °F 30.1 in East 0.9 mph 7 mph 79% 0 in 689 W/m2
10:52 74.5 °F 66.4 °F 30.1 in East 0.9 mph 4 mph 76% 0 in 700 W/m2
10:57 74.8 °F 66.7 °F 30.1 in ENE 2.9 mph 6 mph 76% 0 in 708 W/m2
11:02 75 °F 66.9 °F 30.1 in Calm   2 mph 76% 0 in 714 W/m2
11:07 75.6 °F 67.1 °F 30.1 in SE 4 mph 7 mph 75% 0 in 728 W/m2
11:12 75.7 °F 66.9 °F 30.1 in NE 2 mph 4 mph 74% 0 in 737 W/m2
11:17 75.9 °F 67.1 °F 30.1 in SE 0.9 mph 7 mph 74% 0 in 745 W/m2
11:22 75.7 °F 66.9 °F 30.1 in ESE 4 mph 4 mph 74% 0 in 749 W/m2
11:27 76.3 °F 67.8 °F 30.1 in Calm   3 mph 75% 0 in 768 W/m2
11:32 76.6 °F 67.3 °F 30.1 in South 0.9 mph 6 mph 73% 0 in 777 W/m2
11:37 76.8 °F 66.7 °F 30.1 in ESE 2.9 mph 4 mph 71% 0 in 786 W/m2
11:42 77 °F 67.3 °F 30.1 in SW 2 mph 2 mph 72% 0 in 795 W/m2
11:47 77.2 °F 66.6 °F 30.1 in SE 4 mph 6 mph 70% 0 in 803 W/m2
11:52 77.5 °F 66.6 °F 30.1 in ENE 2 mph 2 mph 69% 0 in 803 W/m2
11:57 77.7 °F 67.1 °F 30.1 in ESE 0.9 mph 1 mph 70% 0 in 812 W/m2
12:02 78.3 °F 67.3 °F 30.1 in SSE 2.9 mph 6 mph 69% 0 in 824 W/m2
12:07 78.3 °F 66.7 °F 30.1 in ESE 2 mph 3 mph 68% 0 in 830 W/m2
12:12 78.4 °F 66.6 °F 30.1 in North 2 mph 5 mph 67% 0 in 835 W/m2
12:17 78.6 °F 66.4 °F 30.1 in East 2.9 mph 9 mph 66% 0 in 840 W/m2
12:22 78.8 °F 66.9 °F 30.1 in East 4 mph 4 mph 67% 0 in 833 W/m2
12:27 79 °F 67.1 °F 30.1 in East 2.9 mph 9 mph 67% 0 in 846 W/m2
12:32 79 °F 66.6 °F 30.1 in ENE 0.9 mph 8 mph 66% 0 in 853 W/m2
12:37 79.2 °F 67.3 °F 30.1 in East 0.9 mph 4 mph 67% 0 in 867 W/m2
12:42 79.3 °F 66.6 °F 30.1 in East 2.9 mph 8 mph 65% 0 in 872 W/m2
12:47 79.7 °F 66.9 °F 30.1 in ESE 2 mph 3 mph 65% 0 in 875 W/m2
12:52 79.9 °F 66.2 °F 30.1 in North 2 mph 6 mph 63% 0 in 882 W/m2
12:57 79.9 °F 66.6 °F 30.1 in ESE 4 mph 4 mph 64% 0 in 888 W/m2
13:02 80.1 °F 65.5 °F 30.1 in ENE 4.9 mph 5 mph 61% 0 in 891 W/m2
13:07 80.2 °F 65.5 °F 30.1 in North 4 mph 5 mph 61% 0 in 900 W/m2
13:12 80.1 °F 64.4 °F 30.1 in SSE 0.9 mph 13 mph 59% 0 in 909 W/m2
13:17 80.1 °F 64.4 °F 30.1 in NW 0.9 mph 5 mph 59% 0 in 928 W/m2
13:22 80.2 °F 65.1 °F 30.1 in ENE 0.9 mph 11 mph 60% 0 in 926 W/m2
13:27 81 °F 65.3 °F 30.1 in NW 0.9 mph 4 mph 59% 0 in 925 W/m2
13:32 81.5 °F 66.7 °F 30.1 in SE 2 mph 8 mph 61% 0 in 904 W/m2
13:37 81.1 °F 64 °F 30.1 in East 0.9 mph 4 mph 56% 0 in 895 W/m2
13:42 81.1 °F 65.5 °F 30.1 in South 4.9 mph 8 mph 59% 0 in 891 W/m2
13:47 81.1 °F 65.5 °F 30.1 in ENE 6 mph 6 mph 59% 0 in 888 W/m2
13:52 81.1 °F 66.4 °F 30.1 in ENE 2.9 mph 4 mph 61% 0 in 896 W/m2
13:57 81.1 °F 65.5 °F 30.1 in NE 2 mph 5 mph 59% 0 in 898 W/m2
14:02 81.1 °F 66 °F 30.1 in ESE 4 mph 8 mph 60% 0 in 932 W/m2
14:07 81.1 °F 66.9 °F 30.1 in North 2.9 mph 4 mph 62% 0 in 178 W/m2
14:12 81.3 °F 65.7 °F 30.1 in South 2 mph 8 mph 59% 0 in 958 W/m2
14:17 81.3 °F 65.1 °F 30 in SE 0.9 mph 6 mph 58% 0 in 970 W/m2
14:22 82 °F 65.8 °F 30 in East 2.9 mph 8 mph 58% 0 in 935 W/m2
14:27 82.2 °F 66 °F 30 in SSW 2 mph 9 mph 58% 0 in 919 W/m2
14:32 82.2 °F 63.9 °F 30 in ESE 2 mph 3 mph 54% 0 in 925 W/m2
14:37 82 °F 65.8 °F 30 in North 0.9 mph 3 mph 58% 0 in 165 W/m2
14:42 81.9 °F 64.6 °F 30 in WNW 0.9 mph 8 mph 56% 0 in 986 W/m2
14:52 81.1 °F 64.4 °F 30 in WSW 0.9 mph 3 mph 57% 0 in 213 W/m2
14:57 81.1 °F 66 °F 30 in ENE 2.9 mph 4 mph 60% 0 in 1060 W/m2
15:02 81.3 °F 66 °F 30 in ENE 0.9 mph 3 mph 60% 0 in 1074 W/m2
15:07 81.5 °F 65.3 °F 30 in East 0.9 mph 3 mph 58% 0 in 638 W/m2
15:12 81.1 °F 65.5 °F 30 in SW 4.9 mph 6 mph 59% 0 in 352 W/m2
15:17 81.1 °F 66.4 °F 30 in West 2 mph 5 mph 61% 0 in 352 W/m2
15:22 81.3 °F 64.6 °F 30 in NE 0.9 mph 6 mph 57% 0 in 343 W/m2
15:27 81.1 °F 64.9 °F 30 in NE 0.9 mph 6 mph 58% 0 in 239 W/m2
15:33 81.1 °F 66 °F 30 in ESE 6.9 mph 7 mph 60% 0 in 295 W/m2
15:38 81 °F 64.8 °F 30 in East 8.1 mph 12 mph 58% 0 in 292 W/m2
15:43 81.1 °F 65.5 °F 30 in SE 0.9 mph 4 mph 59% 0 in 1018 W/m2
15:48 82 °F 65.3 °F 30 in South 0.9 mph 12 mph 57% 0 in 993 W/m2
15:53 81.3 °F 64 °F 30 in NW 4.9 mph 9 mph 56% 0 in 279 W/m2
15:58 80.8 °F 64.6 °F 30 in NW 0.9 mph 5 mph 58% 0 in 343 W/m2
16:03 81.1 °F 66.4 °F 30 in WNW 8.1 mph 8 mph 61% 0 in 900 W/m2
16:08 81.3 °F 65.7 °F 30 in WSW 2 mph 11 mph 59% 0 in 705 W/m2
16:13 81 °F 65.8 °F 30 in NW 4.9 mph 8 mph 60% 0 in 851 W/m2
16:18 80.8 °F 65.7 °F 30 in West 6 mph 11 mph 60% 0 in 949 W/m2
16:23 81.1 °F 66.4 °F 30 in WNW 4 mph 8 mph 61% 0 in 972 W/m2
16:28 81.1 °F 64.4 °F 30 in WNW 2 mph 7 mph 57% 0 in 895 W/m2
16:33 81.3 °F 65.1 °F 30 in ESE 2 mph 4 mph 58% 0 in 870 W/m2
16:38 81.9 °F 65.7 °F 30 in WNW 2.9 mph 4 mph 58% 0 in 874 W/m2
16:43 82.2 °F 66 °F 30 in West 2.9 mph 3 mph 58% 0 in 884 W/m2
16:48 82.8 °F 65.5 °F 30 in Calm   4 mph 56% 0 in 376 W/m2
16:53 82.6 °F 64.2 °F 30 in WNW 2 mph 3 mph 54% 0 in 264 W/m2
16:58 81.9 °F 64.6 °F 30 in SSE 2 mph 5 mph 56% 0 in 176 W/m2
17:03 80.8 °F 65.1 °F 30 in WNW 2.9 mph 7 mph 59% 0 in 216 W/m2
17:08 79.9 °F 65.3 °F 30 in NNW 2.9 mph 9 mph 61% 0 in 183 W/m2
17:13 79.2 °F 65.5 °F 30 in ENE 0.9 mph 6 mph 63% 0 in 151 W/m2
17:18 78.4 °F 64.8 °F 30 in WNW 0.9 mph 9 mph 63% 0 in 128 W/m2
17:23 78.3 °F 65.1 °F 30 in WSW 0.9 mph 6 mph 64% 0 in 127 W/m2
17:28 77.7 °F 65.5 °F 30 in SW 2 mph 4 mph 66% 0 in 167 W/m2
17:33 77.5 °F 65.7 °F 30 in WNW 2 mph 6 mph 67% 0 in 334 W/m2
17:38 77.9 °F 66 °F 30 in NNE 2.9 mph 4 mph 67% 0 in 635 W/m2
17:43 78.1 °F 63.5 °F 30 in East 6 mph 7 mph 61% 0 in 199 W/m2
17:48 77.7 °F 64 °F 30 in NNE 0.9 mph 3 mph 63% 0 in 123 W/m2
17:53 77.5 °F 64.4 °F 30 in West 8.9 mph 9 mph 64% 0 in 14 W/m2
17:58 75 °F 62.1 °F 30 in NW 11 mph 14 mph 64% 0 in 12 W/m2
18:03 72.1 °F 61 °F 30.1 in WNW 15 mph 15 mph 68% 0 in 23 W/m2
18:08 69.1 °F 58.5 °F 30 in NW 10.1 mph 20 mph 69% 0 in 47 W/m2
18:13 67.1 °F 59.4 °F 30 in West 6 mph 17 mph 76% 0 in 53 W/m2
18:18 66.6 °F 59.2 °F 30.1 in WSW 6.9 mph 20 mph 77% 0 in 42 W/m2
18:23 66.4 °F 59.7 °F 30 in West 2 mph 14 mph 79% 0 in 28 W/m2
18:28 65.8 °F 60.3 °F 30 in West 10.1 mph 17 mph 82% 0 in 37 W/m2
18:33 65.3 °F 60.6 °F 30 in WNW 6.9 mph 14 mph 85% 0.04 in 28 W/m2
18:38 64.8 °F 61.2 °F 30 in WNW 6.9 mph 17 mph 88% 0.06 in 23 W/m2
18:43 64.6 °F 61.3 °F 30 in West 6 mph 12 mph 89% 0.06 in 21 W/m2
18:48 64.6 °F 61.3 °F 30.1 in West 6 mph 10 mph 89% 0.06 in 32 W/m2
18:53 64.6 °F 61.3 °F 30 in West 6.9 mph 11 mph 89% 0.06 in 44 W/m2
18:58 64.6 °F 61.3 °F 30.1 in West 2.9 mph 7 mph 89% 0.06 in 44 W/m2
19:03 64.8 °F 61.7 °F 30.1 in West 2 mph 4 mph 90% 0.06 in 40 W/m2
19:08 64.8 °F 61.7 °F 30.1 in WSW 0.9 mph 2 mph 90% 0.06 in 40 W/m2
19:13 64.9 °F 61.9 °F 30.1 in WNW 0.9 mph 2 mph 90% 0.06 in 44 W/m2
19:18 64.9 °F 62.2 °F 30.1 in West 2 mph 3 mph 91% 0.06 in 49 W/m2
19:23 64.9 °F 62.2 °F 30.1 in West 0.9 mph 3 mph 91% 0.06 in 49 W/m2
19:28 64.9 °F 62.2 °F 30.1 in Calm   2 mph 91% 0.06 in 44 W/m2
19:33 64.9 °F 62.6 °F 30.1 in WSW 0.9 mph 2 mph 92% 0.02 in 32 W/m2
19:38 65.1 °F 62.8 °F 30.1 in Calm   1 mph 92% 0.01 in 33 W/m2
19:43 65.1 °F 62.8 °F 30.1 in Calm     92% 0 in 37 W/m2
19:48 65.1 °F 63 °F 30.1 in Calm   1 mph 93% 0 in 39 W/m2
19:53 64.9 °F 62.8 °F 30.1 in Calm     93% 0 in 42 W/m2
19:58 64.9 °F 62.8 °F 30.1 in Calm     93% 0 in 42 W/m2
20:03 64.9 °F 62.8 °F 30.1 in Calm     93% 0 in 40 W/m2
20:08 64.9 °F 62.8 °F 30.1 in Calm     93% 0 in 37 W/m2
20:13 64.8 °F 62.6 °F 30.1 in Calm   1 mph 93% 0 in 35 W/m2
20:18 64.9 °F 62.8 °F 30.1 in Calm     93% 0 in 30 W/m2
20:23 64.9 °F 62.8 °F 30.1 in Calm     93% 0 in 30 W/m2
20:28 64.9 °F 63.1 °F 30.1 in Calm     94% 0 in 30 W/m2
20:33 64.9 °F 62.8 °F 30.1 in Calm     93% 0 in 30 W/m2
20:38 64.8 °F 62.6 °F 30.1 in ENE 0.9 mph 1 mph 93% 0 in 25 W/m2
20:43 64.8 °F 62.4 °F 30.1 in ESE 0.9 mph 2 mph 92% 0 in 21 W/m2
20:48 64.8 °F 62.4 °F 30.1 in ENE 0.9 mph 5 mph 92% 0 in 19 W/m2
20:53 64.6 °F 62.2 °F 30.1 in SE 0.9 mph 1 mph 92% 0 in 18 W/m2
20:58 64.6 °F 62.2 °F 30.1 in SE 0.9 mph 5 mph 92% 0 in 16 W/m2
21:03 64.4 °F 62.1 °F 30.1 in Calm     92% 0 in 14 W/m2
21:08 64.2 °F 61.9 °F 30.1 in Calm   1 mph 92% 0 in 12 W/m2
21:13 64 °F 61.7 °F 30.1 in SE 0.9 mph 2 mph 92% 0 in 11 W/m2
21:18 63.9 °F 61.5 °F 30.1 in Calm   1 mph 92% 0 in 9 W/m2
21:23 63.9 °F 61.5 °F 30.1 in Calm   1 mph 92% 0 in 5 W/m2
21:28 63.5 °F 61.2 °F 30.1 in Calm     92% 0 in 0 W/m2
21:34 63.3 °F 61 °F 30.1 in Calm   1 mph 92% 0 in 0 W/m2
21:39 63.1 °F 61.2 °F 30.1 in Calm     93% 0 in 0 W/m2
21:44 62.8 °F 60.4 °F 30.1 in Calm     92% 0 in 0 W/m2
21:49 62.4 °F 60.4 °F 30.1 in Calm     93% 0 in 0 W/m2
21:54 62.2 °F 60.3 °F 30.1 in SSE 0.9 mph 2 mph 93% 0 in 0 W/m2
21:59 62.1 °F 60.1 °F 30.1 in SSE 0.9 mph 1 mph 93% 0 in 0 W/m2
22:04 61.9 °F 59.9 °F 30.1 in Calm     93% 0 in 0 W/m2
22:09 61.9 °F 60.1 °F 30.1 in Calm     94% 0 in 0 W/m2
22:14 61.9 °F 60.1 °F 30.1 in Calm     94% 0 in 0 W/m2
22:19 61.5 °F 59.7 °F 30.1 in Calm   1 mph 94% 0 in 0 W/m2
22:24 61.5 °F 59.7 °F 30.1 in Calm     94% 0 in 0 W/m2
22:29 61.3 °F 59.5 °F 30.1 in Calm   1 mph 94% 0 in 0 W/m2
22:34 61.3 °F 59.5 °F 30.1 in Calm     94% 0 in 0 W/m2
22:39 61.3 °F 59.5 °F 30.1 in Calm     94% 0 in 0 W/m2
22:44 61.3 °F 59.9 °F 30.1 in Calm     95% 0 in 0 W/m2
22:49 61.3 °F 59.9 °F 30.1 in Calm   1 mph 95% 0 in 0 W/m2
22:54 61.3 °F 59.9 °F 30.1 in Calm   1 mph 95% 0 in 0 W/m2
22:59 61.3 °F 59.9 °F 30.1 in West 2 mph 2 mph 95% 0 in 0 W/m2
23:04 61.3 °F 59.9 °F 30.1 in West 2 mph 2 mph 95% 0 in 0 W/m2
23:09 61.5 °F 60.1 °F 30.1 in WNW 0.9 mph 3 mph 95% 0 in 0 W/m2
23:14 61.9 °F 60.4 °F 30.1 in WNW 0.9 mph 3 mph 95% 0 in 0 W/m2
23:19 61.9 °F 60.4 °F 30.1 in WNW 0.9 mph 2 mph 95% 0 in 0 W/m2
23:24 61.9 °F 60.4 °F 30.1 in Calm   1 mph 95% 0 in 0 W/m2
23:29 61.7 °F 60.3 °F 30.1 in Calm     95% 0 in 0 W/m2
23:34 61.7 °F 60.3 °F 30.1 in Calm     95% 0 in 0 W/m2
23:39 61.7 °F 60.3 °F 30.1 in Calm     95% 0 in 0 W/m2
23:44 61.7 °F 60.3 °F 30.1 in Calm   2 mph 95% 0 in 0 W/m2
23:49 61.7 °F 60.3 °F 30.1 in WSW 0.9 mph 2 mph 95% 0 in 0 W/m2
23:54 62.1 °F 61 °F 30.1 in WSW 0.9 mph 4 mph 96% 0 in 0 W/m2
23:59 62.2 °F 61.2 °F 30.1 in WNW 2 mph 3 mph 96% 0 in 0 W/m2
Juneau County Weather
Compliments of Weather Underground - 2 mb